Badlands National Park, SD

11:50 PM MDT on August 30, 2014 (GMT -0600)
Philip | Change Station
CLOSE
Current Station
Airport
Location: Philip,
Elevation: 2208 ft
Nearby Weather Stations

Elev 2208 ft 44.05 °N, 101.60 °W | Updated 55 minutes ago

Scattered Clouds
Scattered Clouds
69 °F
Feels Like 69 °F
N
25
Wind Variable Wind from WNW
Gusts 36 mph

Today
High -- | Low -- °F
--% Chance of Precip.
Yesterday
High -- | Low -- °F
Precip. -- in
6:09 AM 7:26 PM
Waxing Crescent, 28% visible
Pressure 29.64 in
Visibility 10.0 miles
Clouds Scattered Clouds 12000 ft
Dew Point 57 °F
Humidity 65%
Rainfall 0.00 in
Snow Depth Not available.
UV 0 out of 12
Pollen 9.70 out of 12
Air Quality Not available.
Flu Activity Not available.
METAR KPHP 310455Z AUTO 30022G31KT 10SM SCT120 21/14 A2970 RMK AO2 PK WND 29034/0441 WSHFT 0420 RAB23E32 SLP037 P0000 T02060139

More Conditions Fewer Conditions

Pressure 29.64 in
Visibility 10.0 miles
Clouds Scattered Clouds 12000 ft
Dew Point 57 °F
Humidity 65%
Rainfall 0.00 in
Snow Depth Not available.
UV 0 out of 12
Pollen 9.70 out of 12
Air Quality Not available.
Flu Activity Not available.
METAR KPHP 310455Z AUTO 30022G31KT 10SM SCT120 21/14 A2970 RMK AO2 PK WND 29034/0441 WSHFT 0420 RAB23E32 SLP037 P0000 T02060139

More Conditions Fewer Conditions

10-Day Weather Forecast

Almanac

Astronomy

Aug. 30, 2014 Rise Set
Actual Time 6:09 AM MDT 7:26 PM MDT
Civil Twilight 5:39 AM MDT 7:56 PM MDT
Nautical Twilight 5:03 AM MDT 8:32 PM MDT
Astronomical Twilight 4:25 AM MDT 9:09 PM MDT
Moon 11:09 AM MDT (8/30) 9:51 PM MDT (8/30)
Length of Visible Light 14h 17m
Length of Day
13h 17m
Tomorrow will be 2m 52s shorter.
Waxing Crescent, 28% of the Moon is Illuminated
Aug 31
Waxing Crescent
Sep 2
First Quarter
Sep 8
Full
Sep 15
Last Quarter
Sep 24
New

Yesterday's Extremes

State Highs State Lows

Community

WunderPhotos

Upload Photos

1,748,790 photos uploaded!

Nearby

Snow Depth

Station Depth Elevation
North Rapid Creek 0 in 6130 ft
Blind Park 0 in 6890 ft

Earthquake Activity

City Distance Mag. Time & Date
No recent earthquake activity has been reported nearby.
Minimum magnitude displayed is 2.5.

Coastal Water Temperatures

Place Temperature
No Stations Reporting

Nearby Weather Stations